sensor_id;sensor_type;location;lat;lon;timestamp;pressure;altitude;pressure_sealevel;temperature;humidity
68301;BME280;55146;47.468;18.806;2023-11-21T00:02:11;99571.69;;;5.50;98.84
68301;BME280;55146;47.468;18.806;2023-11-21T00:04:36;99569.53;;;5.52;98.56
68301;BME280;55146;47.468;18.806;2023-11-21T00:07:03;99574.50;;;5.55;98.07
68301;BME280;55146;47.468;18.806;2023-11-21T00:09:28;99581.56;;;5.56;97.56
68301;BME280;55146;47.468;18.806;2023-11-21T00:11:54;99573.84;;;5.48;97.25
68301;BME280;55146;47.468;18.806;2023-11-21T00:14:19;99573.34;;;5.51;97.31
68301;BME280;55146;47.468;18.806;2023-11-21T00:16:44;99573.56;;;5.49;96.98
68301;BME280;55146;47.468;18.806;2023-11-21T00:19:10;99574.41;;;5.50;96.85
68301;BME280;55146;47.468;18.806;2023-11-21T00:21:36;99572.78;;;5.49;96.71
68301;BME280;55146;47.468;18.806;2023-11-21T00:24:01;99576.59;;;5.48;96.72
68301;BME280;55146;47.468;18.806;2023-11-21T00:26:26;99584.75;;;5.48;96.54
68301;BME280;55146;47.468;18.806;2023-11-21T00:28:52;99581.47;;;5.46;96.46
68301;BME280;55146;47.468;18.806;2023-11-21T00:31:18;99586.09;;;5.45;96.75
68301;BME280;55146;47.468;18.806;2023-11-21T00:33:43;99583.13;;;5.47;96.69
68301;BME280;55146;47.468;18.806;2023-11-21T00:36:09;99585.00;;;5.46;96.28
68301;BME280;55146;47.468;18.806;2023-11-21T00:38:37;99598.06;;;5.44;95.90
68301;BME280;55146;47.468;18.806;2023-11-21T00:41:05;99613.06;;;5.42;96.11
68301;BME280;55146;47.468;18.806;2023-11-21T00:43:31;99609.25;;;5.43;95.95
68301;BME280;55146;47.468;18.806;2023-11-21T00:45:56;99605.94;;;5.41;95.83
68301;BME280;55146;47.468;18.806;2023-11-21T00:48:21;99607.00;;;5.40;95.80
68301;BME280;55146;47.468;18.806;2023-11-21T00:50:47;99602.31;;;5.35;95.71
68301;BME280;55146;47.468;18.806;2023-11-21T00:53:12;99604.72;;;5.32;95.95
68301;BME280;55146;47.468;18.806;2023-11-21T00:55:38;99594.81;;;5.25;96.22
68301;BME280;55146;47.468;18.806;2023-11-21T00:58:05;99599.44;;;5.25;96.04
68301;BME280;55146;47.468;18.806;2023-11-21T01:00:33;99591.53;;;5.23;96.07
68301;BME280;55146;47.468;18.806;2023-11-21T01:02:58;99608.44;;;5.25;95.93
68301;BME280;55146;47.468;18.806;2023-11-21T01:05:23;99602.16;;;5.25;95.76
68301;BME280;55146;47.468;18.806;2023-11-21T01:07:49;99604.59;;;5.21;95.73
68301;BME280;55146;47.468;18.806;2023-11-21T01:10:15;99589.72;;;5.12;95.76
68301;BME280;55146;47.468;18.806;2023-11-21T01:12:42;99596.28;;;5.11;95.94
68301;BME280;55146;47.468;18.806;2023-11-21T01:15:08;99593.28;;;5.13;95.97
68301;BME280;55146;47.468;18.806;2023-11-21T01:17:34;99584.63;;;5.16;95.92
68301;BME280;55146;47.468;18.806;2023-11-21T01:20:00;99582.37;;;5.13;95.85
68301;BME280;55146;47.468;18.806;2023-11-21T01:22:26;99585.09;;;5.13;95.61
68301;BME280;55146;47.468;18.806;2023-11-21T01:24:52;99581.00;;;5.10;95.61
68301;BME280;55146;47.468;18.806;2023-11-21T01:27:18;99582.06;;;5.09;95.46
68301;BME280;55146;47.468;18.806;2023-11-21T01:29:43;99586.09;;;5.07;95.32
68301;BME280;55146;47.468;18.806;2023-11-21T01:32:09;99583.66;;;5.05;95.37
68301;BME280;55146;47.468;18.806;2023-11-21T01:34:35;99578.44;;;5.04;95.44
68301;BME280;55146;47.468;18.806;2023-11-21T01:37:00;99579.75;;;5.01;95.63
68301;BME280;55146;47.468;18.806;2023-11-21T01:39:27;99570.44;;;4.97;95.54
68301;BME280;55146;47.468;18.806;2023-11-21T01:41:53;99574.59;;;5.00;95.30
68301;BME280;55146;47.468;18.806;2023-11-21T01:44:18;99571.28;;;4.98;95.22
68301;BME280;55146;47.468;18.806;2023-11-21T01:46:45;99564.16;;;4.97;95.47
68301;BME280;55146;47.468;18.806;2023-11-21T01:49:12;99574.25;;;4.96;95.55
68301;BME280;55146;47.468;18.806;2023-11-21T01:51:40;99563.34;;;4.96;95.54
68301;BME280;55146;47.468;18.806;2023-11-21T01:54:06;99572.34;;;4.97;95.45
68301;BME280;55146;47.468;18.806;2023-11-21T01:56:32;99566.31;;;4.95;95.36
68301;BME280;55146;47.468;18.806;2023-11-21T01:58:58;99555.69;;;4.93;95.25
68301;BME280;55146;47.468;18.806;2023-11-21T02:01:23;99559.25;;;4.94;95.36
68301;BME280;55146;47.468;18.806;2023-11-21T02:03:49;99552.13;;;4.93;95.61
68301;BME280;55146;47.468;18.806;2023-11-21T02:06:14;99544.13;;;4.86;95.80
68301;BME280;55146;47.468;18.806;2023-11-21T02:08:39;99543.87;;;4.87;96.08
68301;BME280;55146;47.468;18.806;2023-11-21T02:11:07;99541.16;;;4.87;96.17
68301;BME280;55146;47.468;18.806;2023-11-21T02:13:34;99533.47;;;4.84;96.33
68301;BME280;55146;47.468;18.806;2023-11-21T02:16:00;99544.37;;;4.84;96.44
68301;BME280;55146;47.468;18.806;2023-11-21T02:18:25;99547.94;;;4.85;96.43
68301;BME280;55146;47.468;18.806;2023-11-21T02:20:51;99539.75;;;4.85;96.40
68301;BME280;55146;47.468;18.806;2023-11-21T02:23:16;99540.88;;;4.89;96.27
68301;BME280;55146;47.468;18.806;2023-11-21T02:25:43;99542.22;;;4.86;96.50
68301;BME280;55146;47.468;18.806;2023-11-21T02:28:08;99526.97;;;4.85;96.56
68301;BME280;55146;47.468;18.806;2023-11-21T02:30:34;99530.00;;;4.89;96.54
68301;BME280;55146;47.468;18.806;2023-11-21T02:33:00;99520.75;;;4.90;96.48
68301;BME280;55146;47.468;18.806;2023-11-21T02:35:26;99516.69;;;4.93;96.29
68301;BME280;55146;47.468;18.806;2023-11-21T02:37:52;99519.44;;;4.93;96.56
68301;BME280;55146;47.468;18.806;2023-11-21T02:40:18;99526.53;;;4.94;96.62
68301;BME280;55146;47.468;18.806;2023-11-21T02:42:45;99523.28;;;4.97;96.63
68301;BME280;55146;47.468;18.806;2023-11-21T02:45:14;99529.50;;;4.92;96.68
68301;BME280;55146;47.468;18.806;2023-11-21T02:47:44;99525.94;;;4.92;96.78
68301;BME280;55146;47.468;18.806;2023-11-21T02:50:10;99514.22;;;4.91;96.93
68301;BME280;55146;47.468;18.806;2023-11-21T02:52:35;99515.88;;;4.92;96.97
68301;BME280;55146;47.468;18.806;2023-11-21T02:55:04;99511.75;;;4.89;96.95
68301;BME280;55146;47.468;18.806;2023-11-21T02:57:29;99509.59;;;4.92;96.99
68301;BME280;55146;47.468;18.806;2023-11-21T02:59:55;99510.19;;;4.94;96.82
68301;BME280;55146;47.468;18.806;2023-11-21T03:02:21;99498.69;;;4.92;96.90
68301;BME280;55146;47.468;18.806;2023-11-21T03:04:47;99497.63;;;4.93;96.85
68301;BME280;55146;47.468;18.806;2023-11-21T03:07:15;99498.69;;;4.92;96.72
68301;BME280;55146;47.468;18.806;2023-11-21T03:09:40;99499.78;;;4.91;96.62
68301;BME280;55146;47.468;18.806;2023-11-21T03:12:05;99489.69;;;4.91;96.63
68301;BME280;55146;47.468;18.806;2023-11-21T03:14:31;99490.28;;;4.93;96.61
68301;BME280;55146;47.468;18.806;2023-11-21T03:16:56;99489.69;;;4.91;96.47
68301;BME280;55146;47.468;18.806;2023-11-21T03:19:22;99495.09;;;4.86;96.50
68301;BME280;55146;47.468;18.806;2023-11-21T03:21:47;99483.94;;;4.87;96.38
68301;BME280;55146;47.468;18.806;2023-11-21T03:24:12;99475.19;;;4.85;96.41
68301;BME280;55146;47.468;18.806;2023-11-21T03:26:38;99470.56;;;4.86;96.51
68301;BME280;55146;47.468;18.806;2023-11-21T03:29:03;99477.31;;;4.83;96.63
68301;BME280;55146;47.468;18.806;2023-11-21T03:31:30;99474.66;;;4.88;96.71
68301;BME280;55146;47.468;18.806;2023-11-21T03:33:55;99464.88;;;4.87;96.77
68301;BME280;55146;47.468;18.806;2023-11-21T03:36:21;99460.53;;;4.92;96.93
68301;BME280;55146;47.468;18.806;2023-11-21T03:38:48;99453.19;;;4.92;96.85
68301;BME280;55146;47.468;18.806;2023-11-21T03:41:13;99447.16;;;4.90;96.74
68301;BME280;55146;47.468;18.806;2023-11-21T03:43:39;99448.25;;;4.89;96.68
68301;BME280;55146;47.468;18.806;2023-11-21T03:46:05;99459.41;;;4.87;96.72
68301;BME280;55146;47.468;18.806;2023-11-21T03:48:30;99465.41;;;4.89;96.63
68301;BME280;55146;47.468;18.806;2023-11-21T03:50:56;99477.38;;;4.88;96.58
68301;BME280;55146;47.468;18.806;2023-11-21T03:53:21;99479.56;;;4.86;96.53
68301;BME280;55146;47.468;18.806;2023-11-21T03:55:47;99480.06;;;4.83;96.59
68301;BME280;55146;47.468;18.806;2023-11-21T03:58:12;99484.91;;;4.81;96.57
68301;BME280;55146;47.468;18.806;2023-11-21T04:00:37;99489.81;;;4.79;96.75
68301;BME280;55146;47.468;18.806;2023-11-21T04:03:03;99496.81;;;4.75;96.53
68301;BME280;55146;47.468;18.806;2023-11-21T04:05:28;99505.00;;;4.75;96.64
68301;BME280;55146;47.468;18.806;2023-11-21T04:07:54;99501.97;;;4.72;96.77
68301;BME280;55146;47.468;18.806;2023-11-21T04:10:19;99516.16;;;4.74;96.72
68301;BME280;55146;47.468;18.806;2023-11-21T04:12:45;99512.63;;;4.73;96.76
68301;BME280;55146;47.468;18.806;2023-11-21T04:15:11;99506.41;;;4.78;97.00
68301;BME280;55146;47.468;18.806;2023-11-21T04:17:38;99505.34;;;4.79;97.04
68301;BME280;55146;47.468;18.806;2023-11-21T04:20:05;99510.19;;;4.77;97.07
68301;BME280;55146;47.468;18.806;2023-11-21T04:22:34;99511.28;;;4.76;97.21
68301;BME280;55146;47.468;18.806;2023-11-21T04:24:59;99522.16;;;4.76;97.31
68301;BME280;55146;47.468;18.806;2023-11-21T04:27:24;99514.56;;;4.78;97.30
68301;BME280;55146;47.468;18.806;2023-11-21T04:29:50;99513.81;;;4.82;97.23
68301;BME280;55146;47.468;18.806;2023-11-21T04:32:15;99514.66;;;4.83;97.33
68301;BME280;55146;47.468;18.806;2023-11-21T04:34:41;99515.47;;;4.83;97.31
68301;BME280;55146;47.468;18.806;2023-11-21T04:37:06;99514.88;;;4.81;97.40
68301;BME280;55146;47.468;18.806;2023-11-21T04:39:31;99520.63;;;4.80;97.65
68301;BME280;55146;47.468;18.806;2023-11-21T04:41:57;99527.72;;;4.81;97.61
68301;BME280;55146;47.468;18.806;2023-11-21T04:44:22;99529.09;;;4.83;97.69
68301;BME280;55146;47.468;18.806;2023-11-21T04:46:47;99541.66;;;4.84;97.95
68301;BME280;55146;47.468;18.806;2023-11-21T04:49:14;99539.50;;;4.86;97.98
68301;BME280;55146;47.468;18.806;2023-11-21T04:51:39;99539.50;;;4.86;98.02
68301;BME280;55146;47.468;18.806;2023-11-21T04:54:04;99536.78;;;4.86;98.06
68301;BME280;55146;47.468;18.806;2023-11-21T04:56:31;99536.84;;;4.92;98.32
68301;BME280;55146;47.468;18.806;2023-11-21T04:58:56;99541.53;;;4.96;98.44
68301;BME280;55146;47.468;18.806;2023-11-21T05:01:21;99544.59;;;5.00;98.71
68301;BME280;55146;47.468;18.806;2023-11-21T05:03:47;99543.78;;;4.99;98.71
68301;BME280;55146;47.468;18.806;2023-11-21T05:06:13;99536.66;;;4.98;98.58
68301;BME280;55146;47.468;18.806;2023-11-21T05:08:39;99541.78;;;4.95;98.73
68301;BME280;55146;47.468;18.806;2023-11-21T05:11:04;99538.44;;;4.87;99.41
68301;BME280;55146;47.468;18.806;2023-11-21T05:13:33;99538.69;;;4.86;99.76
68301;BME280;55146;47.468;18.806;2023-11-21T05:15:59;99547.41;;;4.88;99.78
68301;BME280;55146;47.468;18.806;2023-11-21T05:18:24;99550.22;;;4.93;99.81
68301;BME280;55146;47.468;18.806;2023-11-21T05:20:53;99545.69;;;4.99;99.93
68301;BME280;55146;47.468;18.806;2023-11-21T05:23:18;99554.41;;;5.01;99.98
68301;BME280;55146;47.468;18.806;2023-11-21T05:25:44;99548.22;;;5.05;99.86
68301;BME280;55146;47.468;18.806;2023-11-21T05:28:09;99549.59;;;5.08;99.98
68301;BME280;55146;47.468;18.806;2023-11-21T05:30:34;99534.84;;;5.04;100.00
68301;BME280;55146;47.468;18.806;2023-11-21T05:33:00;99539.78;;;5.07;99.93
68301;BME280;55146;47.468;18.806;2023-11-21T05:35:25;99536.22;;;5.06;99.76
68301;BME280;55146;47.468;18.806;2023-11-21T05:37:51;99537.03;;;5.07;99.74
68301;BME280;55146;47.468;18.806;2023-11-21T05:40:17;99537.03;;;5.07;99.76
68301;BME280;55146;47.468;18.806;2023-11-21T05:42:43;99534.91;;;5.09;99.71
68301;BME280;55146;47.468;18.806;2023-11-21T05:45:09;99550.25;;;5.15;99.73
68301;BME280;55146;47.468;18.806;2023-11-21T05:47:40;99562.28;;;5.19;99.72
68301;BME280;55146;47.468;18.806;2023-11-21T05:50:07;99566.59;;;5.15;99.84
68301;BME280;55146;47.468;18.806;2023-11-21T05:52:36;99572.56;;;5.12;100.00
68301;BME280;55146;47.468;18.806;2023-11-21T05:55:01;99567.59;;;5.09;100.00
68301;BME280;55146;47.468;18.806;2023-11-21T05:57:26;99564.31;;;5.07;100.00
68301;BME280;55146;47.468;18.806;2023-11-21T05:59:52;99569.25;;;5.10;100.00
68301;BME280;55146;47.468;18.806;2023-11-21T06:02:17;99569.84;;;5.12;100.00
68301;BME280;55146;47.468;18.806;2023-11-21T06:04:43;99581.06;;;5.15;100.00
68301;BME280;55146;47.468;18.806;2023-11-21T06:07:08;99582.19;;;5.19;100.00
68301;BME280;55146;47.468;18.806;2023-11-21T06:09:35;99583.38;;;5.23;100.00
68301;BME280;55146;47.468;18.806;2023-11-21T06:12:00;99583.91;;;5.25;99.98
68301;BME280;55146;47.468;18.806;2023-11-21T06:14:26;99594.56;;;5.27;100.00
68301;BME280;55146;47.468;18.806;2023-11-21T06:16:51;99607.97;;;5.28;100.00
68301;BME280;55146;47.468;18.806;2023-11-21T06:19:17;99618.63;;;5.30;100.00
68301;BME280;55146;47.468;18.806;2023-11-21T06:21:46;99627.94;;;5.34;100.00
68301;BME280;55146;47.468;18.806;2023-11-21T06:24:11;99634.53;;;5.38;100.00
68301;BME280;55146;47.468;18.806;2023-11-21T06:26:37;99642.16;;;5.36;100.00
68301;BME280;55146;47.468;18.806;2023-11-21T06:29:03;99637.78;;;5.35;100.00
68301;BME280;55146;47.468;18.806;2023-11-21T06:31:29;99639.69;;;5.35;100.00
68301;BME280;55146;47.468;18.806;2023-11-21T06:33:54;99647.09;;;5.39;100.00
68301;BME280;55146;47.468;18.806;2023-11-21T06:36:20;99644.38;;;5.39;100.00
68301;BME280;55146;47.468;18.806;2023-11-21T06:38:45;99650.34;;;5.36;100.00
68301;BME280;55146;47.468;18.806;2023-11-21T06:41:11;99653.06;;;5.36;100.00
68301;BME280;55146;47.468;18.806;2023-11-21T06:43:39;99655.88;;;5.41;100.00
68301;BME280;55146;47.468;18.806;2023-11-21T06:46:04;99654.22;;;5.40;100.00
68301;BME280;55146;47.468;18.806;2023-11-21T06:48:30;99653.19;;;5.46;100.00
68301;BME280;55146;47.468;18.806;2023-11-21T06:50:56;99655.75;;;5.53;100.00
68301;BME280;55146;47.468;18.806;2023-11-21T06:53:21;99653.03;;;5.53;100.00
68301;BME280;55146;47.468;18.806;2023-11-21T06:55:47;99657.72;;;5.57;100.00
68301;BME280;55146;47.468;18.806;2023-11-21T06:58:12;99657.78;;;5.62;100.00
68301;BME280;55146;47.468;18.806;2023-11-21T07:00:39;99662.16;;;5.63;100.00
68301;BME280;55146;47.468;18.806;2023-11-21T07:03:04;99655.12;;;5.67;100.00
68301;BME280;55146;47.468;18.806;2023-11-21T07:05:30;99659.47;;;5.68;100.00
68301;BME280;55146;47.468;18.806;2023-11-21T07:07:56;99651.88;;;5.70;100.00
68301;BME280;55146;47.468;18.806;2023-11-21T07:10:21;99663.38;;;5.73;100.00
68301;BME280;55146;47.468;18.806;2023-11-21T07:12:46;99666.16;;;5.78;100.00
68301;BME280;55146;47.468;18.806;2023-11-21T07:15:11;99662.66;;;5.82;100.00
68301;BME280;55146;47.468;18.806;2023-11-21T07:17:37;99665.16;;;5.84;100.00
68301;BME280;55146;47.468;18.806;2023-11-21T07:20:03;99663.34;;;5.89;100.00
68301;BME280;55146;47.468;18.806;2023-11-21T07:22:29;99668.84;;;5.94;100.00
68301;BME280;55146;47.468;18.806;2023-11-21T07:24:55;99659.34;;;5.97;100.00
68301;BME280;55146;47.468;18.806;2023-11-21T07:27:22;99662.62;;;5.99;100.00
68301;BME280;55146;47.468;18.806;2023-11-21T07:29:47;99668.91;;;5.99;100.00
68301;BME280;55146;47.468;18.806;2023-11-21T07:32:13;99666.50;;;6.03;100.00
68301;BME280;55146;47.468;18.806;2023-11-21T07:34:40;99670.38;;;6.07;100.00
68301;BME280;55146;47.468;18.806;2023-11-21T07:37:05;99668.78;;;6.11;100.00
68301;BME280;55146;47.468;18.806;2023-11-21T07:39:30;99666.63;;;6.13;100.00
68301;BME280;55146;47.468;18.806;2023-11-21T07:41:56;99665.28;;;6.16;100.00
68301;BME280;55146;47.468;18.806;2023-11-21T07:44:23;99658.47;;;6.18;100.00
68301;BME280;55146;47.468;18.806;2023-11-21T07:46:48;99657.97;;;6.21;100.00
68301;BME280;55146;47.468;18.806;2023-11-21T07:49:15;99660.47;;;6.23;100.00
68301;BME280;55146;47.468;18.806;2023-11-21T07:51:43;99655.28;;;6.26;100.00
68301;BME280;55146;47.468;18.806;2023-11-21T07:54:09;99656.16;;;6.32;100.00
68301;BME280;55146;47.468;18.806;2023-11-21T07:56:35;99658.91;;;6.32;100.00
68301;BME280;55146;47.468;18.806;2023-11-21T07:59:00;99654.84;;;6.34;100.00
68301;BME280;55146;47.468;18.806;2023-11-21T08:01:25;99646.66;;;6.34;100.00
68301;BME280;55146;47.468;18.806;2023-11-21T08:03:54;99652.13;;;6.34;100.00
68301;BME280;55146;47.468;18.806;2023-11-21T08:06:22;99650.25;;;6.40;100.00
68301;BME280;55146;47.468;18.806;2023-11-21T08:08:48;99655.19;;;6.43;100.00
68301;BME280;55146;47.468;18.806;2023-11-21T08:11:13;99656.84;;;6.44;100.00
68301;BME280;55146;47.468;18.806;2023-11-21T08:13:38;99663.66;;;6.41;100.00
68301;BME280;55146;47.468;18.806;2023-11-21T08:16:04;99653.00;;;6.40;100.00
68301;BME280;55146;47.468;18.806;2023-11-21T08:18:30;99646.44;;;6.41;100.00
68301;BME280;55146;47.468;18.806;2023-11-21T08:20:56;99642.06;;;6.40;100.00
68301;BME280;55146;47.468;18.806;2023-11-21T08:23:22;99637.97;;;6.42;100.00
68301;BME280;55146;47.468;18.806;2023-11-21T08:25:56;99640.78;;;6.47;100.00
68301;BME280;55146;47.468;18.806;2023-11-21T08:28:21;99640.25;;;6.50;100.00
68301;BME280;55146;47.468;18.806;2023-11-21T08:30:53;99644.63;;;6.52;99.93
68301;BME280;55146;47.468;18.806;2023-11-21T08:33:22;99644.63;;;6.52;99.95
68301;BME280;55146;47.468;18.806;2023-11-21T08:35:48;99643.56;;;6.53;99.96
68301;BME280;55146;47.468;18.806;2023-11-21T08:38:13;99639.75;;;6.54;100.00
68301;BME280;55146;47.468;18.806;2023-11-21T08:40:39;99637.03;;;6.59;100.00
68301;BME280;55146;47.468;18.806;2023-11-21T08:43:04;99635.97;;;6.60;100.00
68301;BME280;55146;47.468;18.806;2023-11-21T08:45:30;99632.41;;;6.59;100.00
68301;BME280;55146;47.468;18.806;2023-11-21T08:47:56;99639.00;;;6.63;100.00
68301;BME280;55146;47.468;18.806;2023-11-21T08:50:21;99641.75;;;6.68;100.00
68301;BME280;55146;47.468;18.806;2023-11-21T08:52:47;99643.72;;;6.73;100.00
68301;BME280;55146;47.468;18.806;2023-11-21T08:55:13;99647.84;;;6.75;100.00
68301;BME280;55146;47.468;18.806;2023-11-21T08:57:39;99648.97;;;6.79;99.87
68301;BME280;55146;47.468;18.806;2023-11-21T09:00:06;99651.44;;;6.81;99.52
68301;BME280;55146;47.468;18.806;2023-11-21T09:02:43;99649.28;;;6.83;98.93
68301;BME280;55146;47.468;18.806;2023-11-21T09:05:10;99651.69;;;6.79;98.44
68301;BME280;55146;47.468;18.806;2023-11-21T09:07:36;99654.75;;;6.83;98.65
68301;BME280;55146;47.468;18.806;2023-11-21T09:10:03;99657.78;;;6.86;98.84
68301;BME280;55146;47.468;18.806;2023-11-21T09:12:29;99658.63;;;6.92;99.06
68301;BME280;55146;47.468;18.806;2023-11-21T09:14:54;99656.22;;;6.96;99.23
68301;BME280;55146;47.468;18.806;2023-11-21T09:17:19;99651.81;;;6.95;99.30
68301;BME280;55146;47.468;18.806;2023-11-21T09:19:45;99645.56;;;6.99;99.31
68301;BME280;55146;47.468;18.806;2023-11-21T09:22:14;99646.72;;;7.03;99.15
68301;BME280;55146;47.468;18.806;2023-11-21T09:24:40;99637.41;;;7.04;98.52
68301;BME280;55146;47.468;18.806;2023-11-21T09:27:05;99632.78;;;7.10;98.28
68301;BME280;55146;47.468;18.806;2023-11-21T09:29:30;99645.94;;;7.13;98.20
68301;BME280;55146;47.468;18.806;2023-11-21T09:31:57;99639.97;;;7.16;98.06
68301;BME280;55146;47.468;18.806;2023-11-21T09:34:24;99625.19;;;7.17;98.11
68301;BME280;55146;47.468;18.806;2023-11-21T09:36:50;99615.62;;;7.19;98.12
68301;BME280;55146;47.468;18.806;2023-11-21T09:39:16;99614.31;;;7.27;98.17
68301;BME280;55146;47.468;18.806;2023-11-21T09:41:46;99620.06;;;7.30;98.32
68301;BME280;55146;47.468;18.806;2023-11-21T09:44:18;99620.09;;;7.36;98.41
68301;BME280;55146;47.468;18.806;2023-11-21T09:46:47;99615.47;;;7.41;98.73
68301;BME280;55146;47.468;18.806;2023-11-21T09:49:13;99619.09;;;7.47;99.23
68301;BME280;55146;47.468;18.806;2023-11-21T09:51:42;99617.19;;;7.52;99.35
68301;BME280;55146;47.468;18.806;2023-11-21T09:54:10;99614.16;;;7.54;99.04
68301;BME280;55146;47.468;18.806;2023-11-21T09:56:37;99612.00;;;7.56;98.77
68301;BME280;55146;47.468;18.806;2023-11-21T09:59:03;99613.09;;;7.60;98.69
68301;BME280;55146;47.468;18.806;2023-11-21T10:01:32;99609.28;;;7.61;98.42
68301;BME280;55146;47.468;18.806;2023-11-21T10:03:58;99605.47;;;7.62;98.58
68301;BME280;55146;47.468;18.806;2023-11-21T10:06:25;99598.91;;;7.63;98.42
68301;BME280;55146;47.468;18.806;2023-11-21T10:08:53;99596.44;;;7.66;98.38
68301;BME280;55146;47.468;18.806;2023-11-21T10:11:23;99590.97;;;7.71;98.23
68301;BME280;55146;47.468;18.806;2023-11-21T10:13:52;99589.87;;;7.72;98.09
68301;BME280;55146;47.468;18.806;2023-11-21T10:16:19;99593.19;;;7.75;98.29
68301;BME280;55146;47.468;18.806;2023-11-21T10:18:50;99588.56;;;7.80;98.21
68301;BME280;55146;47.468;18.806;2023-11-21T10:21:18;99589.41;;;7.86;98.09
68301;BME280;55146;47.468;18.806;2023-11-21T10:23:44;99591.31;;;7.90;98.29
68301;BME280;55146;47.468;18.806;2023-11-21T10:26:11;99592.19;;;7.96;97.94
68301;BME280;55146;47.468;18.806;2023-11-21T10:28:41;99593.81;;;7.97;97.38
68301;BME280;55146;47.468;18.806;2023-11-21T10:31:07;99592.69;;;7.93;96.55
68301;BME280;55146;47.468;18.806;2023-11-21T10:33:32;99589.41;;;7.91;96.34
68301;BME280;55146;47.468;18.806;2023-11-21T10:35:58;99585.59;;;7.97;96.04
68301;BME280;55146;47.468;18.806;2023-11-21T10:38:24;99586.16;;;7.99;95.48
68301;BME280;55146;47.468;18.806;2023-11-21T10:40:52;99591.38;;;8.00;95.63
68301;BME280;55146;47.468;18.806;2023-11-21T10:43:18;99581.75;;;8.03;96.14
68301;BME280;55146;47.468;18.806;2023-11-21T10:45:44;99585.34;;;8.08;96.20
68301;BME280;55146;47.468;18.806;2023-11-21T10:48:10;99596.34;;;8.13;96.28
68301;BME280;55146;47.468;18.806;2023-11-21T10:50:37;99584.81;;;8.17;95.73
68301;BME280;55146;47.468;18.806;2023-11-21T10:53:04;99583.16;;;8.16;95.78
68301;BME280;55146;47.468;18.806;2023-11-21T10:55:30;99576.34;;;8.23;96.32
68301;BME280;55146;47.468;18.806;2023-11-21T10:57:59;99579.41;;;8.32;96.65
68301;BME280;55146;47.468;18.806;2023-11-21T11:00:26;99573.94;;;8.37;96.47
68301;BME280;55146;47.468;18.806;2023-11-21T11:02:52;99565.13;;;8.40;96.03
68301;BME280;55146;47.468;18.806;2023-11-21T11:05:25;99569.81;;;8.44;95.64
68301;BME280;55146;47.468;18.806;2023-11-21T11:07:58;99578.03;;;8.44;95.48
68301;BME280;55146;47.468;18.806;2023-11-21T11:10:27;99577.22;;;8.49;95.37
68301;BME280;55146;47.468;18.806;2023-11-21T11:12:55;99575.31;;;8.49;95.34
68301;BME280;55146;47.468;18.806;2023-11-21T11:15:21;99578.03;;;8.55;95.33
68301;BME280;55146;47.468;18.806;2023-11-21T11:17:48;99567.06;;;8.60;95.19
68301;BME280;55146;47.468;18.806;2023-11-21T11:20:16;99564.63;;;8.63;94.61
68301;BME280;55146;47.468;18.806;2023-11-21T11:22:50;99565.97;;;8.66;94.84
68301;BME280;55146;47.468;18.806;2023-11-21T11:28:14;99566.25;;;8.69;94.67
68301;BME280;55146;47.468;18.806;2023-11-21T11:33:43;99549.25;;;8.72;94.10
68301;BME280;55146;47.468;18.806;2023-11-21T11:36:33;99546.53;;;8.62;93.62
68301;BME280;55146;47.468;18.806;2023-11-21T11:38:59;99550.34;;;8.66;94.01
68301;BME280;55146;47.468;18.806;2023-11-21T11:41:29;99543.75;;;8.72;94.12
68301;BME280;55146;47.468;18.806;2023-11-21T11:43:55;99535.81;;;8.76;94.14
68301;BME280;55146;47.468;18.806;2023-11-21T11:46:39;99542.66;;;8.83;94.30
68301;BME280;55146;47.468;18.806;2023-11-21T11:49:06;99557.47;;;8.87;93.53
68301;BME280;55146;47.468;18.806;2023-11-21T11:51:33;99551.97;;;8.92;93.53
68301;BME280;55146;47.468;18.806;2023-11-21T11:54:01;99548.12;;;8.99;93.66
68301;BME280;55146;47.468;18.806;2023-11-21T11:56:31;99539.03;;;9.03;93.71
68301;BME280;55146;47.468;18.806;2023-11-21T11:59:00;99538.19;;;9.08;93.51
68301;BME280;55146;47.468;18.806;2023-11-21T12:01:28;99526.69;;;9.11;93.41
68301;BME280;55146;47.468;18.806;2023-11-21T12:06:45;99542.31;;;9.15;92.83
68301;BME280;55146;47.468;18.806;2023-11-21T12:09:21;99542.56;;;9.14;92.07
68301;BME280;55146;47.468;18.806;2023-11-21T12:11:48;99543.41;;;9.14;92.01
68301;BME280;55146;47.468;18.806;2023-11-21T12:14:14;99547.28;;;9.13;91.49
68301;BME280;55146;47.468;18.806;2023-11-21T12:16:40;99545.06;;;9.15;91.32
68301;BME280;55146;47.468;18.806;2023-11-21T12:19:08;99535.97;;;9.20;91.86
68301;BME280;55146;47.468;18.806;2023-11-21T12:21:33;99542.84;;;9.22;92.40
68301;BME280;55146;47.468;18.806;2023-11-21T12:23:59;99531.56;;;9.29;92.43
68301;BME280;55146;47.468;18.806;2023-11-21T12:26:25;99531.00;;;9.32;92.91
68301;BME280;55146;47.468;18.806;2023-11-21T12:28:53;99529.91;;;9.33;92.46
68301;BME280;55146;47.468;18.806;2023-11-21T12:31:22;99528.25;;;9.32;92.06
68301;BME280;55146;47.468;18.806;2023-11-21T12:33:47;99522.75;;;9.32;92.32
68301;BME280;55146;47.468;18.806;2023-11-21T12:36:13;99515.91;;;9.34;92.41
68301;BME280;55146;47.468;18.806;2023-11-21T12:38:39;99521.37;;;9.34;92.36
68301;BME280;55146;47.468;18.806;2023-11-21T12:41:05;99519.19;;;9.37;92.39
68301;BME280;55146;47.468;18.806;2023-11-21T12:43:31;99526.06;;;9.34;92.43
68301;BME280;55146;47.468;18.806;2023-11-21T12:46:10;99519.47;;;9.35;92.46
68301;BME280;55146;47.468;18.806;2023-11-21T12:48:42;99513.69;;;9.37;92.57
68301;BME280;55146;47.468;18.806;2023-11-21T12:51:09;99516.69;;;9.40;92.71
68301;BME280;55146;47.468;18.806;2023-11-21T12:53:37;99517.25;;;9.42;93.00
68301;BME280;55146;47.468;18.806;2023-11-21T12:58:34;99518.59;;;9.50;93.45
68301;BME280;55146;47.468;18.806;2023-11-21T13:01:01;99520.22;;;9.56;93.66
68301;BME280;55146;47.468;18.806;2023-11-21T13:03:29;99517.72;;;9.59;93.75
68301;BME280;55146;47.468;18.806;2023-11-21T13:05:55;99511.66;;;9.62;93.82